createdAt,value
2019-03-31T00:00:17.295Z,86.47
2019-03-31T00:02:46.181Z,86.58
2019-03-31T00:05:14.973Z,86.10
2019-03-31T00:07:43.914Z,85.79
2019-03-31T00:10:12.674Z,85.75
2019-03-31T00:12:41.416Z,85.84
2019-03-31T00:15:10.722Z,86.33
2019-03-31T00:17:39.495Z,86.18
2019-03-31T00:20:08.483Z,86.34
2019-03-31T00:22:37.218Z,87.08
2019-03-31T00:25:06.671Z,87.57
2019-03-31T00:27:35.603Z,87.50
2019-03-31T00:30:05.707Z,88.34
2019-03-31T00:32:34.518Z,87.72
2019-03-31T00:35:03.322Z,87.60
2019-03-31T00:37:32.268Z,87.56
2019-03-31T00:40:01.056Z,88.07
2019-03-31T00:42:29.838Z,89.31
2019-03-31T00:44:58.647Z,89.31
2019-03-31T00:47:27.480Z,88.42
2019-03-31T00:49:56.262Z,88.57
2019-03-31T00:52:25.098Z,89.00
2019-03-31T00:54:53.874Z,88.92
2019-03-31T00:57:22.895Z,89.05
2019-03-31T00:59:51.751Z,89.61
2019-03-31T01:02:22.247Z,89.89
2019-03-31T01:04:51.043Z,89.79
2019-03-31T01:07:22.377Z,89.87
2019-03-31T01:09:52.879Z,89.89
2019-03-31T01:12:23.528Z,89.84
2019-03-31T01:14:52.415Z,89.52
2019-03-31T01:17:21.541Z,90.10
2019-03-31T01:19:50.692Z,90.03
2019-03-31T01:22:19.471Z,90.27
2019-03-31T01:24:48.227Z,90.14
2019-03-31T01:27:17.063Z,90.06
2019-03-31T01:29:45.809Z,90.38
2019-03-31T01:32:14.675Z,90.97
2019-03-31T01:34:43.578Z,90.86
2019-03-31T01:37:13.072Z,91.34
2019-03-31T01:39:41.934Z,91.87
2019-03-31T01:42:10.885Z,91.75
2019-03-31T01:44:39.768Z,91.64
2019-03-31T01:47:08.740Z,92.45
2019-03-31T01:49:37.554Z,92.35
2019-03-31T01:52:06.328Z,92.25
2019-03-31T01:54:35.106Z,92.38
2019-03-31T01:57:04.002Z,92.18
2019-03-31T01:59:32.786Z,92.28
2019-03-31T02:02:04.516Z,92.47
2019-03-31T02:04:32.169Z,92.69
2019-03-31T02:07:00.956Z,92.88
2019-03-31T02:09:29.794Z,93.16
2019-03-31T02:11:58.605Z,93.56
2019-03-31T02:14:27.450Z,93.75
2019-03-31T02:16:56.296Z,93.30
2019-03-31T02:19:25.052Z,92.96
2019-03-31T02:21:53.907Z,93.06
2019-03-31T02:24:22.659Z,93.00
2019-03-31T02:26:51.479Z,93.20
2019-03-31T02:29:20.286Z,93.19
2019-03-31T02:31:49.137Z,93.09
2019-03-31T02:34:18.006Z,92.97
2019-03-31T02:36:46.755Z,92.60
2019-03-31T02:39:15.613Z,93.04
2019-03-31T02:41:44.364Z,93.13
2019-03-31T02:44:13.152Z,93.45
2019-03-31T02:46:42.109Z,93.57
2019-03-31T02:49:10.900Z,93.71
2019-03-31T02:51:39.667Z,93.96
2019-03-31T02:54:08.438Z,93.75
2019-03-31T02:56:38.810Z,93.92
2019-03-31T02:59:09.163Z,93.96
2019-03-31T03:01:40.846Z,93.75
2019-03-31T03:04:11.253Z,93.66
2019-03-31T03:06:41.537Z,93.75
2019-03-31T03:09:10.298Z,93.56
2019-03-31T03:11:41.183Z,93.47
2019-03-31T03:14:11.463Z,93.36
2019-03-31T03:16:40.627Z,93.10
2019-03-31T03:19:09.512Z,92.90
2019-03-31T03:21:38.253Z,92.70
2019-03-31T03:24:07.074Z,92.87
2019-03-31T03:26:36.987Z,92.77
2019-03-31T03:29:05.798Z,92.40
2019-03-31T03:31:34.811Z,92.55
2019-03-31T03:34:03.629Z,92.69
2019-03-31T03:36:32.477Z,92.56
2019-03-31T03:39:01.345Z,92.55
2019-03-31T03:41:30.155Z,92.55
2019-03-31T03:44:02.319Z,92.06
2019-03-31T03:46:29.714Z,92.00
2019-03-31T03:48:58.600Z,92.03
2019-03-31T03:51:27.522Z,92.20
2019-03-31T03:53:56.256Z,92.38
2019-03-31T03:56:28.832Z,92.38
2019-03-31T03:58:55.785Z,92.37
2019-03-31T04:01:26.121Z,91.69
2019-03-31T04:03:54.916Z,91.22
2019-03-31T04:06:23.764Z,90.68
2019-03-31T04:08:52.531Z,90.77
2019-03-31T04:11:23.185Z,90.68
2019-03-31T04:13:52.084Z,90.72
2019-03-31T04:16:20.924Z,90.42
2019-03-31T04:18:49.800Z,90.37
2019-03-31T04:21:18.548Z,90.16
2019-03-31T04:23:47.423Z,90.15
2019-03-31T04:26:16.358Z,90.07
2019-03-31T04:28:45.172Z,90.13
2019-03-31T04:31:13.995Z,90.19
2019-03-31T04:33:51.529Z,90.29
2019-03-31T04:36:13.472Z,89.88
2019-03-31T04:38:42.320Z,89.75
2019-03-31T04:41:11.174Z,89.34
2019-03-31T04:43:39.913Z,88.83
2019-03-31T04:46:08.788Z,89.61
2019-03-31T04:48:37.532Z,89.96
2019-03-31T04:51:06.485Z,90.34
2019-03-31T04:53:35.400Z,90.55
2019-03-31T04:56:04.177Z,90.40
2019-03-31T04:58:32.974Z,90.44
2019-03-31T05:01:01.880Z,90.39
2019-03-31T05:03:30.619Z,90.71
2019-03-31T05:05:59.441Z,90.52
2019-03-31T05:08:28.193Z,90.05
2019-03-31T05:10:57.142Z,90.19
2019-03-31T05:13:25.929Z,90.00
2019-03-31T05:15:55.669Z,90.12
2019-03-31T05:18:24.486Z,90.60
2019-03-31T05:20:53.272Z,90.98
2019-03-31T05:23:22.111Z,91.05
2019-03-31T05:25:50.957Z,91.22
2019-03-31T05:28:19.797Z,90.77
2019-03-31T05:30:48.649Z,91.36
2019-03-31T05:33:17.476Z,90.69
2019-03-31T05:35:46.353Z,90.44
2019-03-31T05:38:15.158Z,90.77
2019-03-31T05:40:43.904Z,90.33
2019-03-31T05:43:12.810Z,90.18
2019-03-31T05:45:41.554Z,90.74
2019-03-31T05:48:10.324Z,90.90
2019-03-31T05:50:39.175Z,90.53
2019-03-31T05:53:07.929Z,90.40
2019-03-31T05:55:36.849Z,90.40
2019-03-31T05:58:06.465Z,90.66
2019-03-31T06:00:38.006Z,91.00
2019-03-31T06:03:06.774Z,90.58
2019-03-31T06:05:35.782Z,90.45
2019-03-31T06:08:05.229Z,90.64
2019-03-31T06:10:34.158Z,90.72
2019-03-31T06:13:02.962Z,90.36
2019-03-31T06:15:31.943Z,89.22
2019-03-31T06:18:00.750Z,88.87
2019-03-31T06:20:29.544Z,88.69
2019-03-31T06:22:58.392Z,88.18
2019-03-31T06:25:27.274Z,87.82
2019-03-31T06:27:56.164Z,87.47
2019-03-31T06:30:25.038Z,87.37
2019-03-31T06:32:55.610Z,87.12
2019-03-31T06:35:24.607Z,86.74
2019-03-31T06:37:53.451Z,87.31
2019-03-31T06:40:22.569Z,86.89
2019-03-31T06:42:51.336Z,87.03
2019-03-31T06:45:20.130Z,86.78
2019-03-31T06:47:49.240Z,86.93
2019-03-31T06:50:19.455Z,86.62
2019-03-31T06:52:48.512Z,86.07
2019-03-31T06:55:17.561Z,85.37
2019-03-31T06:57:46.337Z,85.32
2019-03-31T07:00:15.581Z,85.18
2019-03-31T07:02:44.424Z,84.42
2019-03-31T07:05:13.293Z,84.36
2019-03-31T07:07:42.151Z,83.91
2019-03-31T07:10:11.150Z,84.18
2019-03-31T07:12:40.943Z,84.32
2019-03-31T07:15:10.816Z,84.42
2019-03-31T07:17:39.705Z,83.86
2019-03-31T07:20:13.601Z,84.44
2019-03-31T07:22:43.350Z,84.34
2019-03-31T07:25:17.740Z,83.81
2019-03-31T07:27:47.476Z,84.21
2019-03-31T07:30:21.271Z,84.41
2019-03-31T07:32:50.176Z,83.85
2019-03-31T07:35:19.211Z,83.90
2019-03-31T07:37:48.363Z,83.10
2019-03-31T07:40:22.086Z,82.86
2019-03-31T07:42:51.521Z,82.15
2019-03-31T07:45:21.092Z,82.97
2019-03-31T07:47:49.902Z,82.98
2019-03-31T07:50:21.413Z,82.46
2019-03-31T07:52:50.699Z,82.96
2019-03-31T07:55:21.435Z,82.62
2019-03-31T07:57:50.339Z,81.55
2019-03-31T08:00:24.169Z,80.91
2019-03-31T08:02:53.222Z,80.18
2019-03-31T08:05:32.463Z,78.94
2019-03-31T08:07:53.634Z,78.76
2019-03-31T08:10:23.567Z,78.23
2019-03-31T08:12:53.500Z,77.53
2019-03-31T08:15:22.310Z,76.41
2019-03-31T08:17:51.227Z,75.16
2019-03-31T08:20:23.688Z,74.69
2019-03-31T08:22:52.707Z,73.40
2019-03-31T08:25:21.856Z,73.77
2019-03-31T08:27:50.797Z,73.28
2019-03-31T08:30:21.207Z,72.18
2019-03-31T08:32:50.255Z,72.23
2019-03-31T08:35:19.305Z,70.71
2019-03-31T08:37:48.109Z,68.88
2019-03-31T08:40:17.035Z,69.06
2019-03-31T08:42:45.805Z,68.89
2019-03-31T08:45:15.875Z,68.06
2019-03-31T08:47:44.756Z,66.30
2019-03-31T08:50:14.018Z,63.47
2019-03-31T08:52:49.945Z,63.21
2019-03-31T08:55:25.484Z,61.38
2019-03-31T08:58:00.749Z,61.17
2019-03-31T09:00:45.846Z,61.74
2019-03-31T09:03:15.982Z,58.71
2019-03-31T09:06:01.029Z,56.80
2019-03-31T09:08:18.878Z,61.00
2019-03-31T09:10:47.812Z,60.96
2019-03-31T09:13:16.587Z,59.36
2019-03-31T09:15:45.407Z,58.14
2019-03-31T09:18:14.254Z,58.66
2019-03-31T09:20:43.020Z,56.34
2019-03-31T09:23:11.982Z,54.76
2019-03-31T09:25:40.853Z,53.49
2019-03-31T09:28:09.652Z,52.57
2019-03-31T09:30:38.630Z,52.64
2019-03-31T09:33:07.718Z,52.58
2019-03-31T09:35:37.924Z,53.00
2019-03-31T09:38:09.031Z,52.10
2019-03-31T09:40:38.005Z,52.81
2019-03-31T09:43:07.095Z,50.60
2019-03-31T09:45:40.971Z,49.25
2019-03-31T09:48:09.819Z,49.29
2019-03-31T09:50:39.075Z,50.88
2019-03-31T09:53:16.873Z,49.66
2019-03-31T09:55:46.878Z,49.03
2019-03-31T09:58:16.085Z,51.72
2019-03-31T10:00:53.930Z,51.50
2019-03-31T10:03:23.285Z,50.97
2019-03-31T10:05:52.105Z,50.50
2019-03-31T10:08:22.219Z,50.24
2019-03-31T10:10:53.716Z,49.88
2019-03-31T10:13:22.474Z,51.54
2019-03-31T10:16:05.062Z,48.74
2019-03-31T10:18:48.144Z,48.27
2019-03-31T10:21:26.714Z,47.16
2019-03-31T10:23:55.663Z,48.92
2019-03-31T10:26:31.792Z,47.72
2019-03-31T10:28:55.255Z,47.94
2019-03-31T10:31:24.118Z,48.08
2019-03-31T10:33:53.316Z,49.47
2019-03-31T10:36:22.156Z,49.54
2019-03-31T10:38:51.109Z,48.96
2019-03-31T10:41:20.030Z,46.34
2019-03-31T10:43:48.921Z,46.52
2019-03-31T10:46:17.817Z,48.80
2019-03-31T10:48:49.253Z,47.35
2019-03-31T10:51:18.017Z,46.39
2019-03-31T10:53:46.802Z,47.66
2019-03-31T10:56:15.631Z,46.92
2019-03-31T10:58:44.441Z,44.55
2019-03-31T11:01:13.324Z,44.06
2019-03-31T11:03:42.116Z,45.07
2019-03-31T11:06:11.069Z,43.89
2019-03-31T11:08:39.991Z,45.95
2019-03-31T11:11:08.772Z,45.37
2019-03-31T11:13:38.049Z,45.66
2019-03-31T11:16:06.862Z,46.06
2019-03-31T11:18:35.640Z,45.00
2019-03-31T11:21:06.960Z,46.78
2019-03-31T11:23:35.724Z,43.55
2019-03-31T11:26:05.029Z,42.59
2019-03-31T11:28:33.814Z,43.93
2019-03-31T11:31:02.552Z,44.42
2019-03-31T11:33:31.468Z,44.26
2019-03-31T11:36:00.210Z,43.52
2019-03-31T11:38:28.950Z,42.87
2019-03-31T11:40:58.127Z,41.25
2019-03-31T11:43:26.892Z,44.78
2019-03-31T11:45:55.633Z,46.93
2019-03-31T11:48:24.432Z,46.59
2019-03-31T11:50:53.162Z,46.74
2019-03-31T11:53:22.050Z,46.68
2019-03-31T11:55:50.800Z,47.60
2019-03-31T11:58:19.570Z,47.38
2019-03-31T12:00:49.920Z,46.41
2019-03-31T12:03:18.756Z,46.27
2019-03-31T12:05:47.519Z,45.52
2019-03-31T12:08:16.368Z,45.04
2019-03-31T12:10:51.870Z,45.03
2019-03-31T12:13:20.802Z,44.63
2019-03-31T12:15:49.713Z,44.11
2019-03-31T12:18:18.477Z,43.89
2019-03-31T12:20:47.241Z,43.16
2019-03-31T12:23:16.155Z,43.68
2019-03-31T12:25:44.898Z,42.18
2019-03-31T12:28:13.667Z,43.29
2019-03-31T12:30:42.443Z,43.74
2019-03-31T12:33:11.881Z,43.86
2019-03-31T12:35:40.617Z,43.18
2019-03-31T12:38:11.433Z,44.35
2019-03-31T12:40:40.982Z,44.76
2019-03-31T12:43:09.735Z,44.50
2019-03-31T12:45:38.536Z,43.83
2019-03-31T12:48:07.428Z,43.09
2019-03-31T12:50:36.177Z,45.28
2019-03-31T12:53:05.089Z,43.47
2019-03-31T12:55:33.947Z,44.75
2019-03-31T12:58:03.455Z,44.30
2019-03-31T13:00:32.182Z,44.89
2019-03-31T13:03:01.138Z,45.95
2019-03-31T13:05:29.967Z,42.73
2019-03-31T13:07:58.764Z,42.28
2019-03-31T13:10:27.664Z,42.82
2019-03-31T13:12:57.352Z,41.91
2019-03-31T13:15:26.120Z,44.87
2019-03-31T13:17:55.095Z,40.59
2019-03-31T13:20:23.867Z,41.89
2019-03-31T13:22:52.641Z,43.07
2019-03-31T13:25:21.510Z,44.60
2019-03-31T13:27:50.353Z,44.10
2019-03-31T13:30:21.929Z,44.62
2019-03-31T13:32:49.862Z,41.22
2019-03-31T13:35:18.795Z,43.28
2019-03-31T13:37:47.551Z,42.75
2019-03-31T13:40:16.337Z,41.71
2019-03-31T13:42:45.226Z,42.31
2019-03-31T13:45:14.670Z,42.32
2019-03-31T13:47:43.465Z,40.22
2019-03-31T13:50:12.650Z,41.91
2019-03-31T13:52:41.689Z,43.15
2019-03-31T13:55:10.715Z,45.46
2019-03-31T13:57:40.861Z,43.40
2019-03-31T14:00:11.965Z,42.28
2019-03-31T14:02:41.159Z,41.31
2019-03-31T14:05:10.035Z,39.51
2019-03-31T14:07:38.971Z,40.39
2019-03-31T14:10:08.115Z,40.15
2019-03-31T14:12:36.870Z,39.28
2019-03-31T14:15:19.117Z,38.53
2019-03-31T14:17:40.561Z,39.38
2019-03-31T14:20:09.937Z,39.18
2019-03-31T14:22:38.720Z,40.50
2019-03-31T14:25:07.676Z,40.87
2019-03-31T14:27:36.483Z,39.09
2019-03-31T14:30:09.124Z,38.45
2019-03-31T14:32:37.965Z,38.26
2019-03-31T14:35:07.017Z,37.94
2019-03-31T14:37:35.749Z,39.76
2019-03-31T14:40:05.897Z,40.28
2019-03-31T14:42:34.646Z,38.98
2019-03-31T14:45:03.551Z,40.18
2019-03-31T14:47:32.312Z,40.12
2019-03-31T14:50:01.091Z,41.11
2019-03-31T14:52:29.993Z,39.19
2019-03-31T14:54:58.784Z,39.46
2019-03-31T14:57:27.630Z,40.47
2019-03-31T14:59:56.541Z,41.76
2019-03-31T15:02:25.312Z,43.16
2019-03-31T15:04:54.306Z,44.16
2019-03-31T15:07:24.166Z,44.08
2019-03-31T15:09:53.191Z,43.17
2019-03-31T15:12:21.983Z,42.45
2019-03-31T15:14:50.928Z,42.91
2019-03-31T15:17:19.755Z,40.97
2019-03-31T15:19:48.602Z,41.09
2019-03-31T15:22:17.636Z,41.17
2019-03-31T15:24:46.484Z,42.51
2019-03-31T15:27:15.323Z,42.95
2019-03-31T15:29:44.164Z,44.38
2019-03-31T15:32:13.026Z,43.70
2019-03-31T15:34:41.803Z,44.19
2019-03-31T15:37:10.726Z,43.06
2019-03-31T15:39:39.607Z,44.09
2019-03-31T15:42:08.390Z,43.48
2019-03-31T15:44:37.163Z,44.84
2019-03-31T15:47:06.069Z,45.18
2019-03-31T15:49:34.923Z,45.35
2019-03-31T15:52:03.765Z,43.63
2019-03-31T15:54:32.622Z,43.82
2019-03-31T15:57:01.487Z,43.47
2019-03-31T15:59:30.357Z,43.09
2019-03-31T16:01:59.150Z,43.59
2019-03-31T16:04:28.005Z,46.45
2019-03-31T16:06:56.883Z,46.66
2019-03-31T16:09:25.750Z,47.57
2019-03-31T16:11:54.541Z,47.27
2019-03-31T16:14:24.361Z,47.21
2019-03-31T16:16:54.613Z,46.90
2019-03-31T16:19:23.416Z,47.78
2019-03-31T16:21:54.152Z,48.58
2019-03-31T16:24:24.588Z,47.47
2019-03-31T16:26:53.422Z,47.99
2019-03-31T16:29:22.325Z,47.17
2019-03-31T16:31:51.139Z,47.96
2019-03-31T16:34:19.918Z,48.33
2019-03-31T16:36:48.755Z,49.09
2019-03-31T16:39:17.633Z,47.78
2019-03-31T16:41:46.457Z,47.19
2019-03-31T16:44:15.390Z,48.10
2019-03-31T16:46:44.200Z,47.88
2019-03-31T16:49:13.016Z,47.84
2019-03-31T16:51:41.824Z,48.90
2019-03-31T16:54:10.555Z,48.57
2019-03-31T16:56:39.339Z,49.81
2019-03-31T16:59:08.257Z,48.58
2019-03-31T17:01:36.993Z,48.04
2019-03-31T17:04:05.735Z,49.08
2019-03-31T17:06:34.522Z,48.37
2019-03-31T17:09:04.839Z,48.39
2019-03-31T17:11:33.613Z,49.30
2019-03-31T17:14:02.363Z,50.81
2019-03-31T17:16:31.128Z,51.59
2019-03-31T17:18:59.867Z,51.67
2019-03-31T17:21:28.650Z,51.94
2019-03-31T17:23:57.409Z,52.07
2019-03-31T17:26:26.231Z,52.33
2019-03-31T17:28:55.095Z,52.82
2019-03-31T17:31:23.985Z,53.25
2019-03-31T17:33:52.970Z,53.04
2019-03-31T17:36:21.705Z,52.28
2019-03-31T17:38:50.470Z,52.51
2019-03-31T17:41:19.447Z,53.22
2019-03-31T17:43:48.195Z,53.67
2019-03-31T17:46:17.132Z,53.67
2019-03-31T17:48:45.871Z,54.06
2019-03-31T17:51:15.191Z,53.57
2019-03-31T17:53:44.022Z,53.26
2019-03-31T17:56:12.920Z,53.39
2019-03-31T17:58:41.727Z,53.31
2019-03-31T18:01:10.620Z,53.04
2019-03-31T18:03:39.377Z,53.22
2019-03-31T18:06:08.172Z,53.42
2019-03-31T18:08:36.955Z,54.10
2019-03-31T18:11:07.364Z,54.73
2019-03-31T18:13:36.264Z,54.62
2019-03-31T18:16:05.025Z,54.71
2019-03-31T18:18:33.804Z,54.67
2019-03-31T18:21:02.545Z,55.08
2019-03-31T18:23:31.396Z,55.40
2019-03-31T18:26:01.067Z,55.45
2019-03-31T18:28:29.837Z,55.16
2019-03-31T18:30:58.667Z,55.46
2019-03-31T18:33:27.444Z,55.23
2019-03-31T18:35:56.210Z,55.42
2019-03-31T18:38:24.965Z,56.00
2019-03-31T18:40:55.520Z,56.63
2019-03-31T18:43:24.533Z,57.22
2019-03-31T18:45:53.348Z,57.64
2019-03-31T18:48:22.165Z,57.88
2019-03-31T18:50:51.057Z,58.59
2019-03-31T18:53:32.188Z,58.45
2019-03-31T18:56:15.749Z,58.87
2019-03-31T18:58:58.551Z,59.30
2019-03-31T19:01:43.898Z,59.87
2019-03-31T19:04:14.346Z,59.93
2019-03-31T19:06:47.757Z,60.31
2019-03-31T19:09:27.355Z,59.89
2019-03-31T19:12:00.643Z,60.40
2019-03-31T19:14:36.967Z,60.65
2019-03-31T19:17:19.556Z,60.38
2019-03-31T19:19:58.751Z,60.67
2019-03-31T19:22:31.819Z,61.09
2019-03-31T19:25:19.706Z,61.10
2019-03-31T19:27:50.059Z,61.54
2019-03-31T19:30:36.658Z,61.62
2019-03-31T19:33:19.143Z,61.99
2019-03-31T19:35:58.622Z,61.71
2019-03-31T19:38:40.960Z,62.37
2019-03-31T19:41:11.291Z,62.31
2019-03-31T19:43:54.051Z,62.26
2019-03-31T19:46:27.383Z,62.55
2019-03-31T19:49:00.359Z,62.32
2019-03-31T19:51:52.873Z,62.74
2019-03-31T19:54:26.055Z,63.22
2019-03-31T19:57:21.340Z,61.96
2019-03-31T19:59:56.150Z,62.88
2019-03-31T20:02:35.497Z,62.31
2019-03-31T20:05:25.025Z,62.67
2019-03-31T20:08:02.088Z,62.73
2019-03-31T20:10:49.139Z,63.02
2019-03-31T20:13:39.140Z,62.39
2019-03-31T20:16:20.640Z,62.57
2019-03-31T20:19:05.989Z,63.08
2019-03-31T20:21:44.241Z,62.87
2019-03-31T20:24:17.566Z,63.05
2019-03-31T20:27:02.815Z,62.84
2019-03-31T20:29:33.266Z,63.02
2019-03-31T20:32:06.539Z,63.29
2019-03-31T20:34:37.169Z,62.98
2019-03-31T20:37:07.512Z,62.92
2019-03-31T20:39:40.815Z,63.02
2019-03-31T20:42:23.078Z,63.05
2019-03-31T20:44:51.889Z,63.31
2019-03-31T20:47:21.108Z,63.15
2019-03-31T20:49:49.912Z,62.67
2019-03-31T20:52:18.699Z,62.86
2019-03-31T20:54:47.546Z,62.67
2019-03-31T20:57:17.704Z,63.09
2019-03-31T20:59:47.082Z,63.11
2019-03-31T21:02:16.296Z,63.48
2019-03-31T21:04:45.605Z,63.64
2019-03-31T21:07:14.800Z,64.51
2019-03-31T21:09:45.062Z,64.85
2019-03-31T21:12:14.237Z,64.68
2019-03-31T21:14:42.996Z,64.79
2019-03-31T21:17:12.086Z,65.75
2019-03-31T21:19:40.962Z,65.31
2019-03-31T21:22:09.831Z,65.64
2019-03-31T21:24:39.312Z,65.59
2019-03-31T21:27:08.515Z,65.50
2019-03-31T21:29:38.144Z,65.95
2019-03-31T21:32:07.149Z,65.78
2019-03-31T21:34:35.941Z,65.80
2019-03-31T21:37:05.055Z,65.77
2019-03-31T21:39:33.822Z,66.41
2019-03-31T21:42:02.641Z,66.84
2019-03-31T21:44:31.688Z,66.99
2019-03-31T21:47:00.444Z,67.25
2019-03-31T21:49:29.173Z,66.81
2019-03-31T21:51:58.096Z,67.59
2019-03-31T21:54:26.821Z,67.75
2019-03-31T21:56:55.612Z,67.62
2019-03-31T21:59:24.374Z,67.62
2019-03-31T22:01:53.253Z,68.66
2019-03-31T22:04:22.027Z,68.53
2019-03-31T22:06:50.809Z,68.44
2019-03-31T22:09:19.543Z,68.30
2019-03-31T22:11:48.333Z,68.36
2019-03-31T22:14:17.108Z,69.00
2019-03-31T22:16:45.842Z,68.66
2019-03-31T22:19:14.644Z,70.68
2019-03-31T22:21:43.435Z,70.68
2019-03-31T22:24:12.230Z,69.92
2019-03-31T22:26:40.958Z,69.92
2019-03-31T22:29:09.696Z,70.27
2019-03-31T22:31:38.445Z,70.29
2019-03-31T22:34:07.230Z,69.72
2019-03-31T22:36:36.016Z,70.57
2019-03-31T22:39:06.831Z,70.24
2019-03-31T22:41:36.518Z,70.38
2019-03-31T22:44:06.086Z,70.02
2019-03-31T22:46:35.704Z,69.92
2019-03-31T22:49:05.787Z,70.39
2019-03-31T22:51:35.469Z,70.04
2019-03-31T22:54:06.203Z,70.12
2019-03-31T22:56:35.713Z,70.28
2019-03-31T22:59:09.517Z,70.19
2019-03-31T23:01:37.336Z,70.35
2019-03-31T23:04:09.171Z,70.64
2019-03-31T23:06:38.932Z,70.61
2019-03-31T23:09:08.544Z,70.43
2019-03-31T23:11:38.114Z,70.69
2019-03-31T23:14:06.950Z,71.12
2019-03-31T23:16:36.728Z,71.56
2019-03-31T23:19:06.221Z,71.69
2019-03-31T23:21:35.105Z,71.70
2019-03-31T23:24:03.898Z,72.14
2019-03-31T23:26:32.623Z,72.32
2019-03-31T23:29:01.384Z,72.49
2019-03-31T23:31:30.104Z,72.51
2019-03-31T23:33:58.870Z,72.76
2019-03-31T23:36:27.655Z,72.89
2019-03-31T23:38:58.446Z,72.96
2019-03-31T23:41:27.187Z,73.24
2019-03-31T23:43:56.057Z,73.43
2019-03-31T23:46:24.817Z,74.49
2019-03-31T23:48:53.564Z,74.00
2019-03-31T23:51:22.326Z,74.62
2019-03-31T23:53:51.087Z,74.52
2019-03-31T23:56:19.892Z,74.61
2019-03-31T23:58:48.642Z,75.51
